Time;durP1;ratioP1;P1;durP2;ratioP2;P2;SDS_P1;SDS_P2;PMS_P1;PMS_P2;Temp;Humidity;BMP_temperature;BMP_pressure;BME280_temperature;BME280_humidity;BME280_pressure;Samples;Min_cycle;Max_cycle;Signal;HPM_P1;HPM_P2
2023/03/04 00:01:40;;;;;;;53.75;33.13;;;;;;;6.64;90.11;97743.22;10207973;28;20026;-48
2023/03/04 00:06:39;;;;;;;70.70;41.75;;;;;;;6.57;90.59;97737.97;10219848;28;20037;-47
2023/03/04 00:11:38;;;;;;;70.30;41.33;;;;;;;6.56;90.77;97725.03;10220395;28;20038;-48
2023/03/04 00:16:37;;;;;;;56.63;36.67;;;;;;;6.57;90.06;97734.53;10215011;28;20034;-48
2023/03/04 00:21:36;;;;;;;46.25;28.50;;;;;;;6.42;91.34;97727.41;10216100;28;20106;-50
2023/03/04 00:26:35;;;;;;;;;;;;;;;6.36;91.28;97724.75;10211288;28;20131;-48
2023/03/04 00:31:34;;;;;;;45.45;27.65;;;;;;;6.45;91.48;97726.63;10217311;28;19914;-48
2023/03/04 00:36:33;;;;;;;46.35;25.60;;;;;;;6.23;91.79;97725.41;10219369;28;20496;-49
2023/03/04 00:41:32;;;;;;;44.05;25.85;;;;;;;6.13;93.03;97721.81;10220357;28;20039;-50
2023/03/04 00:46:31;;;;;;;45.65;29.40;;;;;;;6.12;92.97;97726.13;10231814;28;20031;-50
2023/03/04 00:51:30;;;;;;;43.92;27.95;;;;;;;6.22;92.47;97711.66;10217700;28;20040;-50
2023/03/04 00:56:29;;;;;;;49.30;29.77;;;;;;;6.30;92.00;97712.63;10215333;28;20389;-50
2023/03/04 01:01:28;;;;;;;49.65;29.40;;;;;;;6.23;92.95;97718.53;10215628;28;20077;-50
2023/03/04 01:06:27;;;;;;;41.70;27.63;;;;;;;6.29;92.44;97713.50;10220636;28;20039;-50
2023/03/04 01:11:26;;;;;;;43.25;26.63;;;;;;;6.39;91.66;97710.19;10214127;28;20122;-49
2023/03/04 01:16:25;;;;;;;50.05;30.73;;;;;;;6.37;91.50;97683.56;10215043;28;20035;-49
2023/03/04 01:21:24;;;;;;;52.15;31.77;;;;;;;6.43;90.67;97697.38;10215395;28;20035;-50
2023/03/04 01:26:22;;;;;;;53.63;32.08;;;;;;;6.40;91.61;97696.47;10220088;28;20054;-49
2023/03/04 01:31:21;;;;;;;56.58;32.80;;;;;;;6.37;91.32;97691.28;10233702;28;20035;-49
2023/03/04 01:36:20;;;;;;;62.13;35.05;;;;;;;6.30;90.82;97673.97;10239298;28;20089;-48
2023/03/04 01:41:24;;;;;;;60.45;33.22;;;;;;;6.25;90.57;97687.66;10205388;28;20039;-49
2023/03/04 01:46:23;;;;;;;58.13;33.45;;;;;;;6.14;91.20;97685.78;10243782;28;20378;-49
2023/03/04 01:51:23;;;;;;;62.53;35.33;;;;;;;6.10;91.27;97686.59;10208453;28;20058;-48
2023/03/04 01:56:29;;;;;;;65.80;37.80;;;;;;;6.11;90.82;97678.00;10204783;28;20071;-50
2023/03/04 02:01:28;;;;;;;83.57;45.95;;;;;;;6.05;91.64;97677.91;10203728;28;20130;-48
2023/03/04 02:06:27;;;;;;;77.53;42.78;;;;;;;6.07;91.93;97677.91;10204111;28;20030;-51
2023/03/04 02:11:26;;;;;;;67.40;42.28;;;;;;;6.00;91.50;97683.81;10203969;28;20516;-50
2023/03/04 02:16:26;;;;;;;63.85;37.25;;;;;;;5.78;92.97;97665.44;10204652;28;20062;-50
2023/03/04 02:21:29;;;;;;;57.03;34.28;;;;;;;5.83;92.18;97680.97;10243260;28;20137;-49
2023/03/04 02:26:33;;;;;;;63.13;37.42;;;;;;;5.62;92.28;97654.03;10242278;28;20069;-49
2023/03/04 02:31:40;;;;;;;61.08;36.95;;;;;;;5.72;92.72;97657.66;10243108;28;20106;-51
2023/03/04 02:36:41;;;;;;;62.00;36.50;;;;;;;5.78;92.23;97662.88;10213505;28;20073;-50
2023/03/04 02:41:40;;;;;;;56.88;34.65;;;;;;;5.72;92.94;97662.81;10243081;28;20117;-48
2023/03/04 02:46:39;;;;;;;53.85;31.85;;;;;;;5.82;93.68;97668.97;10242649;28;20038;-50
2023/03/04 02:51:38;;;;;;;52.67;32.70;;;;;;;5.79;92.83;97635.41;10205954;28;20113;-51
2023/03/04 02:56:36;;;;;;;;;;;;;;;5.94;93.21;97664.00;10203732;28;20098;-51
2023/03/04 03:01:35;;;;;;;49.05;29.77;;;;;;;5.88;93.19;97628.72;10203408;28;20589;-49
2023/03/04 03:06:35;;;;;;;52.17;31.02;;;;;;;6.09;92.67;97659.06;10203669;28;20504;-49
2023/03/04 03:11:34;;;;;;;56.08;32.53;;;;;;;6.16;92.44;97666.06;10202967;28;20144;-51
2023/03/04 03:16:33;;;;;;;53.90;34.25;;;;;;;6.14;92.54;97648.84;10202805;28;20436;-51
2023/03/04 03:21:32;;;;;;;49.00;30.73;;;;;;;6.16;91.89;97660.03;10203921;28;20070;-49
2023/03/04 03:26:31;;;;;;;51.90;30.23;;;;;;;6.14;92.36;97661.72;10202739;28;20134;-49
2023/03/04 03:31:30;;;;;;;56.38;32.50;;;;;;;6.21;92.03;97657.53;10202668;28;20113;-51
2023/03/04 03:36:29;;;;;;;52.88;32.30;;;;;;;6.27;92.32;97653.31;10209909;28;20034;-49
2023/03/04 03:41:28;;;;;;;59.38;34.80;;;;;;;6.33;91.42;97660.31;10241033;28;20049;-49
2023/03/04 03:46:27;;;;;;;56.72;33.85;;;;;;;6.37;91.34;97664.63;10241375;28;20030;-49
2023/03/04 03:51:26;;;;;;;56.38;32.53;;;;;;;6.33;91.92;97648.28;10212809;28;20034;-49
2023/03/04 03:56:25;;;;;;;61.53;34.00;;;;;;;6.45;90.85;97663.03;10210213;28;20058;-49
2023/03/04 04:01:24;;;;;;;57.42;33.53;;;;;;;6.42;91.30;97662.97;10209182;28;20038;-51
2023/03/04 04:06:23;;;;;;;54.10;32.92;;;;;;;6.39;91.65;97662.94;10206995;28;20065;-49
2023/03/04 04:11:22;;;;;;;55.33;30.13;;;;;;;6.16;91.07;97644.56;10234858;28;20027;-50
2023/03/04 04:16:21;;;;;;;58.92;30.90;;;;;;;6.38;91.99;97661.22;10208611;28;20416;-49
2023/03/04 04:21:20;;;;;;;55.50;31.45;;;;;;;6.40;90.69;97660.41;10210845;28;20041;-48
2023/03/04 04:26:19;;;;;;;52.33;27.92;;;;;;;6.43;90.95;97661.28;10208909;28;20046;-49
2023/03/04 04:31:18;;;;;;;48.65;28.83;;;;;;;6.34;90.09;97665.44;10207048;28;20038;-48
2023/03/04 04:36:16;;;;;;;51.45;27.75;;;;;;;6.34;90.76;97660.31;10216914;28;20508;-47
2023/03/04 04:41:22;;;;;;;52.20;27.55;;;;;;;6.42;91.14;97668.13;10237382;28;20043;-51
2023/03/04 04:46:21;;;;;;;47.97;26.17;;;;;;;6.50;90.69;97663.09;10246988;28;20088;-50
2023/03/04 04:51:20;;;;;;;57.05;29.50;;;;;;;6.49;90.51;97663.94;10210661;28;20420;-50
2023/03/04 04:56:25;;;;;;;56.75;28.83;;;;;;;6.50;89.77;97666.53;10208079;28;20528;-48
2023/03/04 05:01:24;;;;;;;60.20;31.70;;;;;;;6.46;90.47;97679.38;10245328;28;20523;-47
2023/03/04 05:06:24;;;;;;;55.85;30.88;;;;;;;6.48;90.75;97686.28;10246009;28;20781;-50
2023/03/04 05:11:23;;;;;;;54.22;28.45;;;;;;;6.38;90.38;97692.16;10246680;28;20050;-48
2023/03/04 05:16:22;;;;;;;;;;;;;;;6.24;91.05;97683.34;10247075;28;20077;-47
2023/03/04 05:21:21;;;;;;;60.72;31.15;;;;;;;6.19;90.72;97689.31;10228073;28;19961;-49
2023/03/04 05:26:19;;;;;;;57.67;31.10;;;;;;;6.28;90.45;97688.59;10206350;28;20054;-49
2023/03/04 05:31:18;;;;;;;72.57;34.67;;;;;;;6.27;90.75;97694.56;10206527;28;20057;-48
2023/03/04 05:36:17;;;;;;;80.55;41.25;;;;;;;5.96;90.81;97652.00;10211935;28;20030;-51
2023/03/04 05:41:19;;;;;;;78.63;39.80;;;;;;;6.21;91.06;97702.22;10244801;28;20146;-49
2023/03/04 05:46:24;;;;;;;80.53;40.45;;;;;;;6.16;91.81;97693.53;10227291;28;20069;-47
2023/03/04 05:51:23;;;;;;;69.47;35.80;;;;;;;6.30;91.39;97709.19;10204995;28;20503;-49
2023/03/04 05:56:22;;;;;;;62.50;32.38;;;;;;;6.36;90.93;97704.16;10204550;28;20516;-48
2023/03/04 06:01:20;;;;;;;66.55;36.60;;;;;;;6.48;91.11;97701.75;10203727;28;20047;-50
2023/03/04 06:06:19;;;;;;;60.72;31.50;;;;;;;6.57;91.74;97704.44;10204439;28;20396;-48
2023/03/04 06:11:18;;;;;;;59.22;30.60;;;;;;;6.70;91.12;97704.59;10202287;28;20037;-47
2023/03/04 06:16:17;;;;;;;58.17;31.83;;;;;;;6.81;90.43;97708.19;10203340;28;20037;-49
2023/03/04 06:21:16;;;;;;;54.28;30.23;;;;;;;6.78;88.70;97718.50;10203339;28;20034;-49
2023/03/04 06:26:15;;;;;;;49.38;28.23;;;;;;;6.88;90.52;97719.47;10203509;28;20589;-48
2023/03/04 06:31:14;;;;;;;51.65;29.33;;;;;;;7.09;89.13;97712.00;10203104;28;20607;-50
2023/03/04 06:36:13;;;;;;;50.17;29.73;;;;;;;7.22;88.81;97716.47;10220015;28;20113;-51
2023/03/04 06:41:13;;;;;;;53.38;31.38;;;;;;;7.31;89.39;97719.97;10229194;28;20058;-50
2023/03/04 06:46:12;;;;;;;50.28;30.38;;;;;;;7.48;88.39;97723.66;10216673;28;20066;-50
2023/03/04 06:51:12;;;;;;;54.50;33.03;;;;;;;7.66;86.53;97717.81;10202635;28;20098;-51
2023/03/04 06:56:14;;;;;;;52.72;31.48;;;;;;;7.81;84.12;97727.44;10204720;28;20067;-49
2023/03/04 07:01:14;;;;;;;131.50;49.78;;;;;;;7.76;83.22;97727.41;10203066;28;20082;-49
2023/03/04 07:06:16;;;;;;;64.35;34.53;;;;;;;7.73;84.48;97734.22;10204249;28;20508;-50
2023/03/04 07:11:16;;;;;;;54.38;32.53;;;;;;;7.92;84.50;97730.09;10212914;28;20054;-48
2023/03/04 07:16:18;;;;;;;60.75;37.97;;;;;;;8.05;81.05;97722.47;10240376;28;20162;-51
2023/03/04 07:21:17;;;;;;;61.65;38.88;;;;;;;8.18;83.32;97722.59;10214114;28;20559;-50
2023/03/04 07:26:17;;;;;;;63.60;39.75;;;;;;;8.02;83.69;97696.63;10212035;28;20174;-49
2023/03/04 07:31:28;;;;;;;60.97;38.75;;;;;;;8.27;82.53;97725.22;10211590;28;20058;-48
2023/03/04 07:36:27;;;;;;;55.90;37.88;;;;;;;8.56;82.62;97722.84;10217119;28;20081;-49
2023/03/04 07:41:28;;;;;;;40.40;25.38;;;;;;;8.61;81.27;97716.00;10248402;28;20122;-49
2023/03/04 07:46:27;;;;;;;32.08;20.92;;;;;;;8.53;79.01;97715.09;10249191;28;20073;-49
2023/03/04 07:51:26;;;;;;;45.30;28.65;;;;;;;8.14;81.18;97627.78;10247942;28;20061;-51
2023/03/04 07:56:30;;;;;;;34.67;21.90;;;;;;;8.67;78.60;97710.00;10248465;28;20511;-51
2023/03/04 08:01:33;;;;;;;36.47;24.10;;;;;;;8.77;80.57;97704.00;10247862;28;20093;-51
2023/03/04 08:06:32;;;;;;;33.92;21.58;;;;;;;8.62;77.62;97662.53;10211180;28;20693;-50
2023/03/04 08:11:33;;;;;;;32.70;20.80;;;;;;;9.23;78.92;97709.41;10210972;28;20137;-51
2023/03/04 08:16:32;;;;;;;38.40;24.67;;;;;;;9.14;74.58;97688.66;10204439;28;20065;-50
2023/03/04 08:21:31;;;;;;;36.13;24.42;;;;;;;9.40;77.76;97712.06;10212577;28;20514;-50
2023/03/04 08:26:34;;;;;;;40.88;27.55;;;;;;;9.67;78.65;97698.31;10208719;28;20449;-51
2023/03/04 08:31:33;;;;;;;40.05;27.30;;;;;;;9.88;77.74;97694.00;10211046;28;20575;-48
2023/03/04 08:36:32;;;;;;;37.28;26.17;;;;;;;10.16;75.40;97700.94;10214820;28;20141;-50
2023/03/04 08:41:32;;;;;;;35.10;24.23;;;;;;;10.36;73.55;97698.34;10209383;28;20117;-50
2023/03/04 08:46:30;;;;;;;36.55;24.40;;;;;;;10.30;71.81;97690.53;10217064;28;20133;-49
2023/03/04 08:51:29;;;;;;;35.35;23.13;;;;;;;10.43;71.34;97683.63;10220735;28;20029;-50
2023/03/04 08:56:28;;;;;;;;;;;;;;;10.56;72.59;97687.06;10213323;28;20062;-48
2023/03/04 09:01:27;;;;;;;35.15;26.08;;;;;;;10.78;68.32;97670.56;10207122;28;19918;-51
2023/03/04 09:06:26;;;;;;;38.75;26.92;;;;;;;10.96;71.21;97646.31;10211902;28;20093;-51
2023/03/04 09:11:25;;;;;;;31.58;21.98;;;;;;;11.65;70.75;97665.84;10220905;28;20030;-47
2023/03/04 09:16:24;;;;;;;37.47;26.30;;;;;;;12.00;65.78;97636.13;10206510;28;20743;-49
2023/03/04 09:21:23;;;;;;;;;;;;;;;12.45;64.14;97649.59;10220424;28;20053;-50
2023/03/04 09:26:25;;;;;;;33.60;21.42;;;;;;;12.44;60.51;97646.13;10214365;28;19918;-50
2023/03/04 09:31:26;;;;;;;31.20;21.25;;;;;;;12.48;59.81;97642.59;10224910;28;20058;-50
2023/03/04 09:36:25;;;;;;;26.90;19.88;;;;;;;12.30;57.64;97641.06;10225939;28;20570;-50
2023/03/04 09:41:25;;;;;;;;;;;;;;;12.06;58.60;97636.03;10225942;28;20117;-50
2023/03/04 09:46:37;;;;;;;26.55;17.80;;;;;;;11.93;58.78;97629.25;10209352;28;20012;-51
2023/03/04 09:51:43;;;;;;;19.10;12.15;;;;;;;11.77;57.79;97623.31;10213169;28;20130;-50
2023/03/04 09:56:42;;;;;;;20.42;12.63;;;;;;;11.31;56.78;97608.03;10211405;28;20457;-48
2023/03/04 10:01:43;;;;;;;;;;;;;;;11.30;57.97;97614.97;10203559;28;20413;-50
2023/03/04 10:06:50;;;;;;;17.80;9.88;;;;;;;11.45;57.85;97609.69;10201310;28;20468;-51
2023/03/04 10:12:03;;;;;;;18.50;11.52;;;;;;;11.48;58.97;97600.09;10204549;28;20584;-50
2023/03/04 10:17:23;;;;;;;17.83;11.75;;;;;;;11.83;62.94;97590.31;10207404;28;20062;-48
2023/03/04 10:22:33;;;;;;;14.25;8.93;;;;;;;12.04;61.07;97583.16;10215964;28;20077;-49
2023/03/04 10:27:33;;;;;;;11.50;7.20;;;;;;;12.25;57.34;97574.28;10201198;28;20491;-50
2023/03/04 10:32:32;;;;;;;10.00;6.40;;;;;;;11.81;56.95;97570.41;10201109;28;20070;-50
2023/03/04 10:37:44;;;;;;;;;;;;;;;11.85;57.18;97557.38;10208125;28;20117;-50
2023/03/04 10:42:48;;;;;;;9.10;5.50;;;;;;;12.13;57.79;97551.00;10206854;28;20023;-51
2023/03/04 10:47:54;;;;;;;10.90;6.45;;;;;;;11.27;56.32;97544.84;10211303;28;20142;-49
2023/03/04 10:52:55;;;;;;;11.77;6.30;;;;;;;11.11;57.99;97535.44;10218006;28;20070;-49
2023/03/04 10:58:03;;;;;;;13.57;7.05;;;;;;;11.23;56.72;97533.59;10211239;28;20816;-48
2023/03/04 11:03:23;;;;;;;8.43;5.20;;;;;;;10.96;57.42;97513.91;10216611;28;20066;-49
2023/03/04 11:08:27;;;;;;;8.77;5.50;;;;;;;11.28;56.16;97510.19;10210221;28;20562;-50
2023/03/04 11:13:26;;;;;;;10.05;5.28;;;;;;;11.47;57.00;97490.13;10226413;28;20081;-50
2023/03/04 11:18:42;;;;;;;10.43;5.35;;;;;;;11.32;57.23;97491.13;10206850;28;20066;-50
2023/03/04 11:23:47;;;;;;;10.18;5.55;;;;;;;11.15;56.73;97477.38;10220639;28;20137;-50
2023/03/04 11:28:55;;;;;;;10.60;5.18;;;;;;;11.35;57.47;97475.50;10212011;28;20074;-50
2023/03/04 11:34:07;;;;;;;8.07;4.93;;;;;;;11.53;55.02;97458.03;10219690;28;20133;-51
2023/03/04 11:39:19;;;;;;;9.52;4.90;;;;;;;11.61;55.60;97451.00;10211060;28;21533;-50
2023/03/04 11:44:18;;;;;;;8.45;5.53;;;;;;;11.84;54.88;97443.84;10220080;28;20145;-51
2023/03/04 11:49:26;;;;;;;;;;;;;;;12.27;54.25;97435.56;10220836;28;20034;-49
2023/03/04 11:54:46;;;;;;;9.48;5.65;;;;;;;12.33;53.04;97429.41;10210624;28;19956;-51
2023/03/04 11:59:48;;;;;;;10.15;5.25;;;;;;;12.59;53.46;97423.84;10216878;28;20062;-50
2023/03/04 12:04:56;;;;;;;10.75;6.22;;;;;;;13.40;55.48;97428.63;10213997;28;20125;-51
2023/03/04 12:10:23;;;;;;;8.68;5.30;;;;;;;13.82;50.87;97405.28;10224793;28;20054;-50
2023/03/04 12:15:31;;;;;;;10.00;5.25;;;;;;;13.56;49.29;97402.31;10218132;28;20141;-51
2023/03/04 12:20:33;;;;;;;11.10;6.13;;;;;;;13.39;50.03;97396.50;10219445;28;20088;-49
2023/03/04 12:25:47;;;;;;;11.07;6.85;;;;;;;13.20;50.17;97353.44;10210399;28;20145;-51
2023/03/04 12:31:12;;;;;;;9.55;5.78;;;;;;;13.78;48.86;97388.88;10203974;28;20050;-50
2023/03/04 12:36:16;;;;;;;12.82;7.15;;;;;;;14.08;48.54;97376.94;10215408;28;20109;-50
2023/03/04 12:42:01;;;;;;;10.77;4.80;;;;;;;13.59;48.18;97374.47;10206727;28;20062;-49
2023/03/04 12:47:22;;;;;;;11.05;4.95;;;;;;;13.24;48.38;97370.75;10189491;28;20139;-48
2023/03/04 12:52:39;;;;;;;10.98;4.55;;;;;;;13.43;48.90;97355.63;10203168;28;20125;-50
2023/03/04 12:57:39;;;;;;;8.40;5.40;;;;;;;13.88;50.20;97348.66;10222890;28;20130;-48
2023/03/04 13:03:10;;;;;;;14.13;6.45;;;;;;;14.19;48.81;97340.16;10205364;28;20845;-47
2023/03/04 13:08:31;;;;;;;10.68;5.57;;;;;;;14.15;48.30;97286.34;10209310;28;20082;-48
2023/03/04 13:13:37;;;;;;;9.88;4.70;;;;;;;14.48;45.71;97331.69;10218197;28;20640;-49
2023/03/04 13:18:39;;;;;;;12.95;6.10;;;;;;;14.41;46.10;97319.69;10209732;28;20133;-48
2023/03/04 13:23:39;;;;;;;10.48;5.25;;;;;;;14.35;45.25;97315.44;10209618;28;20487;-48
2023/03/04 13:28:38;;;;;;;9.73;6.50;;;;;;;14.32;43.81;97310.31;10210049;28;20603;-51
2023/03/04 13:33:37;;;;;;;11.57;5.90;;;;;;;14.41;45.01;97306.63;10214189;28;20473;-48
2023/03/04 13:38:37;;;;;;;;;;;;;;;14.53;45.14;97300.25;10217105;28;20409;-49
2023/03/04 13:43:42;;;;;;;11.20;5.50;;;;;;;14.52;44.83;97295.91;10202714;28;20382;-49
2023/03/04 13:48:42;;;;;;;14.40;6.53;;;;;;;14.46;44.65;97288.25;10206374;28;20463;-48
2023/03/04 13:53:51;;;;;;;12.48;6.80;;;;;;;14.36;45.04;97293.69;10214155;28;20148;-50
2023/03/04 13:59:20;;;;;;;13.07;6.50;;;;;;;14.10;45.93;97290.78;10208135;28;20150;-49
2023/03/04 14:04:28;;;;;;;11.95;7.75;;;;;;;14.15;45.78;97281.13;10202434;28;20114;-49
2023/03/04 14:09:30;;;;;;;24.90;8.73;;;;;;;13.93;45.44;97278.97;10203010;28;20073;-49
2023/03/04 14:14:39;;;;;;;12.07;8.13;;;;;;;13.57;46.08;97278.03;10217159;28;20118;-50
2023/03/04 14:19:43;;;;;;;;;;;;;;;13.36;46.96;97276.69;10206591;28;20077;-50
2023/03/04 14:25:05;;;;;;;12.50;7.97;;;;;;;13.31;46.63;97268.97;10203449;28;19960;-48
2023/03/04 14:30:21;;;;;;;12.57;8.50;;;;;;;13.06;47.43;97267.72;10206445;28;20134;-51
2023/03/04 14:35:24;;;;;;;15.90;8.90;;;;;;;12.77;47.56;97266.50;10205837;28;20515;-48
2023/03/04 14:40:29;;;;;;;13.20;8.77;;;;;;;12.51;49.16;97246.13;10220469;28;20062;-48
2023/03/04 14:45:28;;;;;;;17.40;9.07;;;;;;;12.62;49.29;97266.75;10210438;28;20125;-50
2023/03/04 14:50:27;;;;;;;12.45;8.77;;;;;;;12.60;48.83;97264.19;10202377;28;20093;-51
2023/03/04 14:55:27;;;;;;;;;;;;;;;12.37;48.66;97263.69;10207597;28;20093;-49
2023/03/04 15:00:30;;;;;;;21.67;9.05;;;;;;;12.21;49.50;97271.72;10205640;28;19953;-51
2023/03/04 15:05:34;;;;;;;14.55;8.82;;;;;;;12.23;49.88;97271.72;10213850;28;20092;-51
2023/03/04 15:10:35;;;;;;;23.40;11.10;;;;;;;11.94;50.25;97220.13;10199342;28;20150;-51
2023/03/04 15:15:44;;;;;;;18.90;11.48;;;;;;;12.19;49.83;97259.63;10206876;28;20062;-48
2023/03/04 15:20:53;;;;;;;15.73;11.10;;;;;;;12.09;50.42;97251.09;10200372;28;20078;-51
2023/03/04 15:25:57;;;;;;;18.37;10.80;;;;;;;11.98;50.16;97247.78;10207686;28;20133;-51
2023/03/04 15:30:56;;;;;;;20.35;11.20;;;;;;;11.94;50.07;97240.91;10209159;28;20063;-51
2023/03/04 15:35:59;;;;;;;;;;;;;;;11.86;49.92;97246.25;10204356;28;20121;-54
2023/03/04 15:40:58;;;;;;;17.48;9.73;;;;;;;11.74;50.16;97229.06;10226549;28;19964;-54
2023/03/04 15:45:57;;;;;;;19.75;10.35;;;;;;;11.67;49.78;97228.28;10214070;28;20141;-54
2023/03/04 15:50:59;;;;;;;14.98;10.02;;;;;;;11.68;50.13;97243.00;10216439;28;20133;-54
2023/03/04 15:55:59;;;;;;;20.08;10.98;;;;;;;11.65;50.24;97234.41;10216939;28;20054;-54
2023/03/04 16:00:58;;;;;;;16.65;10.80;;;;;;;11.48;51.23;97232.03;10206210;28;20129;-54
2023/03/04 16:05:57;;;;;;;;;;;;;;;11.34;51.48;97232.19;10217710;28;20049;-54
2023/03/04 16:10:56;;;;;;;17.35;9.98;;;;;;;11.32;51.60;97233.09;10123519;28;20351;-54
2023/03/04 16:15:55;;;;;;;17.95;11.40;;;;;;;11.25;52.00;97234.91;10228985;28;20046;-54
2023/03/04 16:20:54;;;;;;;17.00;11.10;;;;;;;11.25;51.85;97240.97;10205879;28;20042;-54
2023/03/04 16:25:54;;;;;;;;;;;;;;;11.10;51.83;97237.69;10185959;28;20121;-54
2023/03/04 16:30:53;;;;;;;17.88;10.95;;;;;;;11.10;52.13;97248.06;10211695;28;20000;-54
2023/03/04 16:35:52;;;;;;;;;;;;;;;11.03;51.97;97250.75;10215811;28;20036;-54
2023/03/04 16:40:51;;;;;;;20.42;11.48;;;;;;;10.99;52.38;97256.84;10204787;28;19953;-54
2023/03/04 16:45:50;;;;;;;19.95;12.07;;;;;;;10.97;52.90;97256.00;10218208;28;20248;-54
2023/03/04 16:50:50;;;;;;;;;;;;;;;10.98;52.48;97260.28;10208668;28;20049;-54
2023/03/04 16:55:49;;;;;;;20.60;12.93;;;;;;;11.01;53.04;97262.88;10208358;28;20421;-53
2023/03/04 17:00:48;;;;;;;21.85;12.63;;;;;;;11.02;53.14;97259.41;10208579;28;20173;-53
2023/03/04 17:05:47;;;;;;;;;;;;;;;10.99;52.62;97263.78;10214878;28;20157;-54
2023/03/04 17:10:47;;;;;;;22.88;13.75;;;;;;;10.91;52.38;97258.63;10204860;28;20008;-54
2023/03/04 17:15:46;;;;;;;30.80;22.10;;;;;;;10.92;52.22;97256.94;10216374;28;20265;-54
2023/03/04 17:20:45;;;;;;;;;;;;;;;10.78;53.26;97259.63;10212551;28;20038;-54
2023/03/04 17:25:44;;;;;;;22.25;14.88;;;;;;;10.83;53.49;97263.88;10211889;28;20413;-54
2023/03/04 17:30:43;;;;;;;21.77;12.80;;;;;;;10.81;53.51;97264.78;10207237;28;20042;-54
2023/03/04 17:35:43;;;;;;;22.23;14.75;;;;;;;10.81;54.25;97269.97;10215774;28;20073;-53
2023/03/04 17:40:42;;;;;;;30.30;19.63;;;;;;;10.82;53.73;97271.69;10213638;28;20113;-54
2023/03/04 17:45:42;;;;;;;;;;;;;;;10.83;54.72;97274.28;10214967;28;20145;-54
2023/03/04 17:50:51;;;;;;;31.60;23.93;;;;;;;10.77;54.47;97283.84;10205922;28;20008;-54
2023/03/04 17:55:54;;;;;;;26.48;18.85;;;;;;;10.74;55.40;97278.69;10213965;28;20129;-54
2023/03/04 18:00:58;;;;;;;29.55;18.48;;;;;;;10.70;55.54;97282.19;10217426;28;20129;-54
2023/03/04 18:05:57;;;;;;;38.85;30.15;;;;;;;10.63;57.10;97286.56;10210394;28;20129;-54
2023/03/04 18:10:56;;;;;;;21.60;17.10;;;;;;;10.47;58.62;97285.84;10206313;28;20042;-54
2023/03/04 18:15:55;;;;;;;26.85;15.93;;;;;;;10.19;60.74;97291.25;10201136;28;20065;-54
2023/03/04 18:20:58;;;;;;;;;;;;;;;9.49;63.82;97289.91;10205245;28;20147;-54
2023/03/04 18:25:57;;;;;;;33.90;21.63;;;;;;;9.37;65.31;97302.03;10219189;28;20041;-53
2023/03/04 18:30:56;;;;;;;;;;;;;;;9.37;65.85;97292.53;10204828;28;20136;-54
2023/03/04 18:36:04;;;;;;;23.85;12.20;;;;;;;9.46;65.07;97304.59;10217046;28;19914;-53
2023/03/04 18:41:06;;;;;;;21.98;14.32;;;;;;;9.52;65.14;97307.16;10199597;28;20126;-53
2023/03/04 18:46:16;;;;;;;19.63;13.07;;;;;;;9.70;64.62;97306.19;10213434;28;20122;-53
2023/03/04 18:51:15;;;;;;;19.98;12.50;;;;;;;9.37;64.25;97234.69;10199772;28;20557;-54
2023/03/04 18:56:21;;;;;;;18.98;12.48;;;;;;;9.63;62.37;97299.31;10199480;28;20591;-53
2023/03/04 19:01:23;;;;;;;26.30;17.35;;;;;;;9.86;61.62;97302.66;10208707;28;20125;-53
2023/03/04 19:06:22;;;;;;;24.25;15.43;;;;;;;9.81;62.03;97317.38;10214335;28;20141;-53
2023/03/04 19:11:23;;;;;;;52.88;32.95;;;;;;;9.85;62.04;97315.66;10211014;28;20126;-54
2023/03/04 19:16:23;;;;;;;27.60;17.98;;;;;;;9.93;62.58;97313.84;10214511;28;20122;-54
2023/03/04 19:21:22;;;;;;;29.27;15.55;;;;;;;9.82;62.26;97294.94;10206808;28;20133;-54
2023/03/04 19:26:21;;;;;;;30.83;17.48;;;;;;;10.01;61.86;97321.63;10227609;28;20121;-54
2023/03/04 19:31:20;;;;;;;40.90;25.23;;;;;;;10.00;61.66;97318.13;10212847;28;20038;-53
2023/03/04 19:36:19;;;;;;;22.88;12.40;;;;;;;9.85;58.66;97320.81;10211041;28;20065;-54
2023/03/04 19:41:18;;;;;;;23.50;13.77;;;;;;;9.75;58.94;97326.06;10206534;28;20037;-54
2023/03/04 19:46:17;;;;;;;23.05;13.35;;;;;;;9.76;59.04;97327.75;10222045;28;20070;-53
2023/03/04 19:51:19;;;;;;;21.67;14.32;;;;;;;9.78;59.55;97325.16;10208976;28;20133;-54
2023/03/04 19:56:18;;;;;;;30.73;19.13;;;;;;;9.46;59.69;97268.31;10221355;28;20062;-53
2023/03/04 20:01:26;;;;;;;31.90;18.67;;;;;;;9.78;59.75;97323.44;10212905;28;20512;-53
2023/03/04 20:06:25;;;;;;;35.72;19.95;;;;;;;9.81;59.60;97322.56;10206914;28;20591;-53
2023/03/04 20:11:26;;;;;;;39.90;19.85;;;;;;;9.87;58.82;97319.94;10210052;28;21288;-54
2023/03/04 20:16:26;;;;;;;45.13;25.45;;;;;;;9.85;58.73;97316.50;10219443;28;20118;-54
2023/03/04 20:21:28;;;;;;;39.92;22.02;;;;;;;9.83;59.73;97319.97;10211138;28;20081;-53
2023/03/04 20:26:29;;;;;;;42.25;24.17;;;;;;;9.15;59.62;97196.78;10207802;28;20134;-53
2023/03/04 20:31:30;;;;;;;52.05;33.53;;;;;;;9.79;59.29;97308.75;10210419;28;20101;-53
2023/03/04 20:36:30;;;;;;;47.03;28.13;;;;;;;9.68;59.65;97308.81;10222221;28;20113;-54
2023/03/04 20:41:29;;;;;;;;;;;;;;;9.77;59.58;97313.97;10215992;28;20088;-54
2023/03/04 20:46:39;;;;;;;39.35;22.55;;;;;;;9.67;60.57;97280.31;10203117;28;19918;-53
2023/03/04 20:51:39;;;;;;;40.83;21.02;;;;;;;9.88;61.05;97310.44;10221275;28;20489;-54
2023/03/04 20:56:38;;;;;;;;;;;;;;;9.87;62.35;97304.41;10208240;28;20457;-54
2023/03/04 21:01:39;;;;;;;36.92;21.38;;;;;;;9.84;62.85;97295.75;10210185;28;19959;-53
2023/03/04 21:06:39;;;;;;;38.53;25.33;;;;;;;9.73;63.28;97296.69;10212788;28;20551;-54
2023/03/04 21:11:39;;;;;;;57.65;35.15;;;;;;;9.52;64.55;97291.63;10212808;28;20086;-54
2023/03/04 21:16:38;;;;;;;56.00;35.85;;;;;;;9.40;65.90;97287.34;10203371;28;20085;-53
2023/03/04 21:21:37;;;;;;;59.72;35.05;;;;;;;9.33;67.07;97285.66;10214653;28;20112;-53
2023/03/04 21:26:36;;;;;;;54.22;32.63;;;;;;;9.29;67.77;97291.69;10206450;28;20039;-54
2023/03/04 21:31:38;;;;;;;56.45;34.25;;;;;;;9.23;68.33;97276.16;10213113;28;20460;-53
2023/03/04 21:36:37;;;;;;;65.03;36.30;;;;;;;9.02;68.49;97243.41;10211842;28;20066;-54
2023/03/04 21:41:36;;;;;;;55.45;33.60;;;;;;;9.16;69.04;97262.38;10214492;28;20443;-53
2023/03/04 21:46:35;;;;;;;43.70;27.77;;;;;;;9.17;68.55;97269.28;10204296;28;20046;-53
2023/03/04 21:51:34;;;;;;;41.78;25.95;;;;;;;9.13;68.45;97262.38;10211726;28;20072;-53
2023/03/04 21:56:34;;;;;;;38.30;23.95;;;;;;;9.10;68.50;97255.47;10202243;28;20049;-53
2023/03/04 22:01:34;;;;;;;37.25;24.42;;;;;;;9.01;68.26;97247.75;10209617;28;20073;-54
2023/03/04 22:06:33;;;;;;;41.30;23.88;;;;;;;8.95;68.18;97260.72;10201501;28;20074;-54
2023/03/04 22:11:32;;;;;;;41.70;24.27;;;;;;;8.91;68.36;97252.09;10208836;28;20082;-54
2023/03/04 22:16:32;;;;;;;;;;;;;;;8.87;68.17;97254.69;10201319;28;20074;-53
2023/03/04 22:21:31;;;;;;;44.53;27.83;;;;;;;8.75;69.01;97244.38;10208486;28;19961;-53
2023/03/04 22:26:32;;;;;;;;;;;;;;;8.73;69.51;97252.13;10201846;28;20488;-53
2023/03/04 22:31:34;;;;;;;38.65;25.00;;;;;;;8.68;70.04;97248.69;10207851;28;19953;-53
2023/03/04 22:36:36;;;;;;;65.95;37.33;;;;;;;8.52;71.25;97235.75;10202841;28;20129;-53
2023/03/04 22:41:35;;;;;;;58.83;34.33;;;;;;;8.52;71.92;97246.13;10209278;28;20563;-53
2023/03/04 22:46:37;;;;;;;42.10;25.92;;;;;;;8.45;72.15;97228.88;10199698;28;20451;-54
2023/03/04 22:51:40;;;;;;;45.80;25.92;;;;;;;8.49;72.28;97235.78;10211299;28;20484;-54
2023/03/04 22:56:39;;;;;;;38.25;24.00;;;;;;;8.51;72.50;97235.78;10200688;28;20085;-54
2023/03/04 23:01:38;;;;;;;36.13;20.75;;;;;;;8.33;73.45;97234.06;10207806;28;20033;-53
2023/03/04 23:06:37;;;;;;;36.28;20.95;;;;;;;7.90;75.48;97241.81;10200842;28;20142;-52
2023/03/04 23:11:37;;;;;;;35.88;23.20;;;;;;;7.94;75.32;97243.53;10212160;28;20085;-53
2023/03/04 23:16:41;;;;;;;35.55;19.85;;;;;;;7.88;76.49;97233.19;10197980;28;20063;-53
2023/03/04 23:21:41;;;;;;;38.00;21.48;;;;;;;7.79;76.78;97231.47;10214724;28;20073;-53